Terminal Aerodrome Forecast
Issued by NWS

Home | Current Version | Previous Version | Text Only | Print | Product List | Glossary On
Versions: 1 2 3 4 5 6 7 8 9 10 11 12 13 14 15 16 17 18 19 20 21 22
000
FTAK31 PANC 211630 AAB
TAFADU
TAF AMD
PADU 211630Z 2116/2212 36008KT 2SM BR OVC004
      TEMPO 2116/2120 4SM BR SCT004 OVC015
     FM212000 36006KT 4SM BR SCT004 OVC015
     FM220300 36006KT 1SM BR OVC003=

USA.gov is the U.S. government's official web portal to all federal, state and local government web resources and services.